createdAt,value
2018-06-28T00:01:18.037Z,22.90
2018-06-28T00:03:46.454Z,22.80
2018-06-28T00:06:14.118Z,22.80
2018-06-28T00:08:41.912Z,22.70
2018-06-28T00:11:09.542Z,22.70
2018-06-28T00:13:37.257Z,22.60
2018-06-28T00:18:32.678Z,22.50
2018-06-28T00:23:28.045Z,22.40
2018-06-28T00:25:55.734Z,22.40
2018-06-28T00:28:23.445Z,22.40
2018-06-28T00:30:51.262Z,22.40
2018-06-28T00:33:18.881Z,22.30
2018-06-28T00:35:46.577Z,22.30
2018-06-28T00:38:14.276Z,22.20
2018-06-28T00:40:41.874Z,22.20
2018-06-28T00:43:09.474Z,22.20
2018-06-28T00:45:37.195Z,22.10
2018-06-28T00:48:05.237Z,22.10
2018-06-28T00:50:32.910Z,22.00
2018-06-28T00:53:00.625Z,22.00
2018-06-28T00:55:28.287Z,21.90
2018-06-28T00:57:55.988Z,21.90
2018-06-28T01:00:23.647Z,21.90
2018-06-28T01:02:51.373Z,21.90
2018-06-28T01:05:19.020Z,21.80
2018-06-28T01:07:46.684Z,21.80
2018-06-28T01:10:14.413Z,21.70
2018-06-28T01:12:42.030Z,21.60
2018-06-28T01:15:09.761Z,21.60
2018-06-28T01:17:37.456Z,21.60
2018-06-28T01:20:05.473Z,21.60
2018-06-28T01:22:33.333Z,21.50
2018-06-28T01:25:00.979Z,21.50
2018-06-28T01:27:33.680Z,21.50
2018-06-28T01:30:01.342Z,21.40
2018-06-28T01:32:28.965Z,21.40
2018-06-28T01:34:56.617Z,21.40
2018-06-28T01:37:24.342Z,21.40
2018-06-28T01:39:51.956Z,21.40
2018-06-28T01:43:38.641Z,21.30
2018-06-28T01:46:06.411Z,21.30
2018-06-28T01:48:34.097Z,21.30
2018-06-28T01:51:01.749Z,21.20
2018-06-28T01:53:29.419Z,21.20
2018-06-28T01:55:57.173Z,21.10
2018-06-28T01:58:24.897Z,21.10
2018-06-28T02:00:52.588Z,21.10
2018-06-28T02:03:20.193Z,21.00
2018-06-28T02:05:49.280Z,21.00
2018-06-28T02:08:17.330Z,21.00
2018-06-28T02:10:44.981Z,20.90
2018-06-28T02:13:12.689Z,20.90
2018-06-28T02:15:40.299Z,20.90
2018-06-28T02:18:08.613Z,20.80
2018-06-28T02:20:36.756Z,20.80
2018-06-28T02:23:04.401Z,20.80
2018-06-28T02:25:32.102Z,20.80
2018-06-28T02:27:59.741Z,20.70
2018-06-28T02:30:27.415Z,20.70
2018-06-28T02:32:55.097Z,20.70
2018-06-28T02:35:22.757Z,20.60
2018-06-28T02:37:50.540Z,20.60
2018-06-28T02:40:18.184Z,20.60
2018-06-28T02:42:45.830Z,20.50
2018-06-28T02:45:13.465Z,20.50
2018-06-28T02:47:41.128Z,20.50
2018-06-28T02:50:08.786Z,20.40
2018-06-28T02:52:36.415Z,20.40
2018-06-28T02:55:04.229Z,20.40
2018-06-28T02:57:31.894Z,20.40
2018-06-28T02:59:59.544Z,20.30
2018-06-28T03:02:27.191Z,20.30
2018-06-28T03:04:55.031Z,20.30
2018-06-28T03:07:22.683Z,20.30
2018-06-28T03:09:50.637Z,20.30
2018-06-28T03:12:18.498Z,20.30
2018-06-28T03:14:46.143Z,20.30
2018-06-28T03:17:13.784Z,20.30
2018-06-28T03:19:41.401Z,20.30
2018-06-28T03:22:09.106Z,20.30
2018-06-28T03:24:36.737Z,20.30
2018-06-28T03:27:04.406Z,20.30
2018-06-28T03:29:32.043Z,20.30
2018-06-28T03:31:59.617Z,20.30
2018-06-28T03:34:27.242Z,20.30
2018-06-28T03:39:22.637Z,20.30
2018-06-28T03:41:50.466Z,20.30
2018-06-28T03:44:18.107Z,20.30
2018-06-28T03:46:45.799Z,20.40
2018-06-28T03:49:13.443Z,20.40
2018-06-28T03:51:41.080Z,20.40
2018-06-28T03:54:08.993Z,20.40
2018-06-28T03:56:37.257Z,20.40
2018-06-28T03:59:04.933Z,20.50
2018-06-28T04:01:33.486Z,20.50
2018-06-28T04:04:01.131Z,20.50
2018-06-28T04:06:29.030Z,20.60
2018-06-28T04:08:56.643Z,20.60
2018-06-28T04:11:24.223Z,20.70
2018-06-28T04:13:51.860Z,20.70
2018-06-28T04:16:19.531Z,20.70
2018-06-28T04:18:47.142Z,20.80
2018-06-28T04:21:14.804Z,20.80
2018-06-28T04:23:42.465Z,20.90
2018-06-28T04:26:10.145Z,20.90
2018-06-28T04:28:37.892Z,20.90
2018-06-28T04:31:05.533Z,21.00
2018-06-28T04:33:33.319Z,21.00
2018-06-28T04:36:01.392Z,21.10
2018-06-28T04:38:29.081Z,21.10
2018-06-28T04:40:56.869Z,21.10
2018-06-28T04:43:24.960Z,21.10
2018-06-28T04:45:52.826Z,21.20
2018-06-28T04:48:20.484Z,21.20
2018-06-28T04:50:49.276Z,21.20
2018-06-28T04:53:17.059Z,21.20
2018-06-28T04:55:44.706Z,21.30
2018-06-28T04:58:12.440Z,21.30
2018-06-28T05:00:40.502Z,21.40
2018-06-28T05:03:08.773Z,21.40
2018-06-28T05:05:36.729Z,21.40
2018-06-28T05:08:04.469Z,21.50
2018-06-28T05:10:32.188Z,21.50
2018-06-28T05:12:59.873Z,21.50
2018-06-28T05:15:27.645Z,21.60
2018-06-28T05:17:55.110Z,21.60
2018-06-28T05:20:22.771Z,21.70
2018-06-28T05:22:50.392Z,21.70
2018-06-28T05:25:18.129Z,21.80
2018-06-28T05:27:45.883Z,21.80
2018-06-28T05:30:13.513Z,21.80
2018-06-28T05:32:41.117Z,21.90
2018-06-28T05:35:08.777Z,21.90
2018-06-28T05:37:36.470Z,22.00
2018-06-28T05:40:04.138Z,22.00
2018-06-28T05:42:31.883Z,22.10
2018-06-28T05:44:59.724Z,22.10
2018-06-28T05:47:27.341Z,22.20
2018-06-28T05:49:55.042Z,22.30
2018-06-28T05:52:22.686Z,22.40
2018-06-28T05:54:50.368Z,22.50
2018-06-28T05:57:18.305Z,22.70
2018-06-28T05:59:45.943Z,22.80
2018-06-28T06:02:13.796Z,23.00
2018-06-28T06:04:41.475Z,23.20
2018-06-28T06:07:09.103Z,23.30
2018-06-28T06:09:36.755Z,23.50
2018-06-28T06:12:04.406Z,23.70
2018-06-28T06:14:32.024Z,23.80
2018-06-28T06:16:59.711Z,24.00
2018-06-28T06:19:27.414Z,24.30
2018-06-28T06:21:55.021Z,24.50
2018-06-28T06:24:22.836Z,24.70
2018-06-28T06:26:50.481Z,24.90
2018-06-28T06:29:18.220Z,25.10
2018-06-28T06:31:45.834Z,25.20
2018-06-28T06:34:14.349Z,25.40
2018-06-28T06:39:11.082Z,25.70
2018-06-28T06:41:38.786Z,25.80
2018-06-28T06:44:06.833Z,26.00
2018-06-28T06:46:34.905Z,26.10
2018-06-28T06:49:02.580Z,26.40
2018-06-28T06:51:30.917Z,26.50
2018-06-28T06:53:58.622Z,26.70
2018-06-28T06:58:54.263Z,27.20
2018-06-28T07:01:21.878Z,27.40
2018-06-28T07:03:49.513Z,27.70
2018-06-28T07:06:17.732Z,28.00
2018-06-28T07:08:45.373Z,28.20
2018-06-28T07:11:13.382Z,28.40
2018-06-28T07:13:41.161Z,28.50
2018-06-28T07:16:08.960Z,28.60
2018-06-28T07:18:37.035Z,28.60
2018-06-28T07:21:04.831Z,28.60
2018-06-28T07:23:32.494Z,28.60
2018-06-28T07:26:00.229Z,28.60
2018-06-28T07:28:28.057Z,28.60
2018-06-28T07:30:55.672Z,28.70
2018-06-28T07:33:24.415Z,28.80
2018-06-28T07:35:52.112Z,29.00
2018-06-28T07:38:19.793Z,29.10
2018-06-28T07:40:47.452Z,29.20
2018-06-28T07:43:15.056Z,29.30
2018-06-28T07:45:42.754Z,29.50
2018-06-28T07:48:10.432Z,29.60
2018-06-28T07:50:38.141Z,29.90
2018-06-28T07:53:05.810Z,30.10
2018-06-28T07:55:33.535Z,30.40
2018-06-28T07:58:01.197Z,30.80
2018-06-28T08:00:28.861Z,31.10
2018-06-28T08:02:56.496Z,31.50
2018-06-28T08:05:24.078Z,31.90
2018-06-28T08:07:51.806Z,32.20
2018-06-28T08:10:19.442Z,32.40
2018-06-28T08:12:47.054Z,32.60
2018-06-28T08:15:14.961Z,32.80
2018-06-28T08:17:42.616Z,32.90
2018-06-28T08:20:10.211Z,32.90
2018-06-28T08:22:37.874Z,32.90
2018-06-28T08:25:05.613Z,32.90
2018-06-28T08:27:33.525Z,32.90
2018-06-28T08:30:01.361Z,32.90
2018-06-28T08:32:28.966Z,32.90
2018-06-28T08:34:56.571Z,32.90
2018-06-28T08:37:24.261Z,32.80
2018-06-28T08:39:51.905Z,32.80
2018-06-28T08:42:19.574Z,32.90
2018-06-28T08:44:47.213Z,33.00
2018-06-28T08:47:14.835Z,33.10
2018-06-28T08:49:42.511Z,33.20
2018-06-28T08:52:10.179Z,33.20
2018-06-28T08:54:37.822Z,33.30
2018-06-28T08:57:05.498Z,33.20
2018-06-28T08:59:33.132Z,33.20
2018-06-28T09:02:00.821Z,33.10
2018-06-28T09:04:28.464Z,33.10
2018-06-28T09:06:56.103Z,33.00
2018-06-28T09:09:23.673Z,33.00
2018-06-28T09:11:51.305Z,32.90
2018-06-28T09:14:19.042Z,32.80
2018-06-28T09:16:46.701Z,32.70
2018-06-28T09:19:14.396Z,32.60
2018-06-28T09:21:42.081Z,32.50
2018-06-28T09:24:09.744Z,32.40
2018-06-28T09:26:37.425Z,32.20
2018-06-28T09:29:05.131Z,32.10
2018-06-28T09:31:32.802Z,32.00
2018-06-28T09:34:01.017Z,31.90
2018-06-28T09:36:28.716Z,31.70
2018-06-28T09:38:56.391Z,31.60
2018-06-28T09:41:24.018Z,31.40
2018-06-28T09:43:51.663Z,31.20
2018-06-28T09:46:19.411Z,31.10
2018-06-28T09:48:47.076Z,30.90
2018-06-28T09:51:14.760Z,30.80
2018-06-28T09:53:42.378Z,30.70
2018-06-28T09:56:10.026Z,30.40
2018-06-28T09:58:37.722Z,30.30
2018-06-28T10:01:05.392Z,30.20
2018-06-28T10:03:33.028Z,30.00
2018-06-28T10:06:00.617Z,29.90
2018-06-28T10:08:28.261Z,29.80
2018-06-28T10:10:55.904Z,29.70
2018-06-28T10:13:23.496Z,29.60
2018-06-28T10:15:51.162Z,29.50
2018-06-28T10:18:18.785Z,29.40
2018-06-28T10:20:46.448Z,29.30
2018-06-28T10:23:14.068Z,29.20
2018-06-28T10:25:41.726Z,29.10
2018-06-28T10:28:09.316Z,29.00
2018-06-28T10:30:37.015Z,29.00
2018-06-28T10:33:04.674Z,28.90
2018-06-28T10:35:32.279Z,28.80
2018-06-28T10:37:59.857Z,28.70
2018-06-28T10:40:27.499Z,28.60
2018-06-28T10:42:55.180Z,28.50
2018-06-28T10:45:22.861Z,28.50
2018-06-28T10:47:50.509Z,28.40
2018-06-28T10:50:18.157Z,28.40
2018-06-28T10:52:45.828Z,28.30
2018-06-28T10:55:13.438Z,28.30
2018-06-28T10:57:41.174Z,28.30
2018-06-28T11:00:08.822Z,28.20
2018-06-28T11:02:36.547Z,28.20
2018-06-28T11:05:04.756Z,28.20
2018-06-28T11:07:32.437Z,28.10
2018-06-28T11:10:00.132Z,28.10
2018-06-28T11:12:27.794Z,28.10
2018-06-28T11:14:55.761Z,28.10
2018-06-28T11:17:23.488Z,28.10
2018-06-28T11:19:51.201Z,28.10
2018-06-28T11:22:18.874Z,28.10
2018-06-28T11:24:46.483Z,28.10
2018-06-28T11:27:14.115Z,28.10
2018-06-28T11:29:41.721Z,28.10
2018-06-28T11:32:09.410Z,28.00
2018-06-28T11:34:37.191Z,28.00
2018-06-28T11:39:32.781Z,27.90
2018-06-28T11:42:00.429Z,27.90
2018-06-28T11:44:28.136Z,27.80
2018-06-28T11:46:55.842Z,27.80
2018-06-28T11:49:23.592Z,27.80
2018-06-28T11:51:51.372Z,27.70
2018-06-28T11:54:19.050Z,27.70
2018-06-28T11:56:46.752Z,27.60
2018-06-28T11:59:14.397Z,27.60
2018-06-28T12:01:42.197Z,27.50
2018-06-28T12:04:09.828Z,27.50
2018-06-28T12:06:37.424Z,27.50
2018-06-28T12:09:08.035Z,27.50
2018-06-28T12:11:35.737Z,27.50
2018-06-28T12:14:03.534Z,27.40
2018-06-28T12:16:31.161Z,27.40
2018-06-28T12:18:58.877Z,27.30
2018-06-28T12:21:26.520Z,27.30
2018-06-28T12:23:54.143Z,27.30
2018-06-28T12:26:21.849Z,27.20
2018-06-28T12:28:49.496Z,27.10
2018-06-28T12:31:17.166Z,27.10
2018-06-28T12:33:44.840Z,27.10
2018-06-28T12:36:12.541Z,27.10
2018-06-28T12:38:40.194Z,27.10
2018-06-28T12:41:07.794Z,27.10
2018-06-28T12:43:35.461Z,27.10
2018-06-28T12:48:41.737Z,27.00
2018-06-28T12:51:09.417Z,27.00
2018-06-28T12:53:37.248Z,27.00
2018-06-28T12:56:37.172Z,27.00
2018-06-28T12:59:06.335Z,26.90
2018-06-28T13:01:34.021Z,26.90
2018-06-28T13:04:01.634Z,26.80
2018-06-28T13:06:29.312Z,26.80
2018-06-28T13:08:57.545Z,26.70
2018-06-28T13:11:25.723Z,26.60
2018-06-28T13:13:53.630Z,26.50
2018-06-28T13:16:22.348Z,26.50
2018-06-28T13:18:50.050Z,26.40
2018-06-28T13:21:17.669Z,26.30
2018-06-28T13:23:45.299Z,26.20
2018-06-28T13:26:14.141Z,26.20
2018-06-28T13:28:42.441Z,26.10
2018-06-28T13:31:10.046Z,26.10
2018-06-28T13:33:38.019Z,26.00
2018-06-28T13:36:05.623Z,26.00
2018-06-28T13:38:33.216Z,25.90
2018-06-28T13:41:01.124Z,25.90
2018-06-28T13:43:28.704Z,25.80
2018-06-28T13:50:52.121Z,25.70
2018-06-28T13:53:19.949Z,25.70
2018-06-28T13:55:47.592Z,25.70
2018-06-28T13:58:15.277Z,25.70
2018-06-28T14:00:42.893Z,25.70
2018-06-28T14:03:10.617Z,25.60
2018-06-28T14:05:38.773Z,25.70
2018-06-28T14:08:06.412Z,25.60
2018-06-28T14:10:34.087Z,25.70
2018-06-28T14:13:01.734Z,25.70
2018-06-28T14:15:29.360Z,25.70
2018-06-28T14:17:56.994Z,25.70
2018-06-28T14:20:24.664Z,25.70
2018-06-28T14:25:19.965Z,25.70
2018-06-28T14:27:48.181Z,25.70
2018-06-28T14:30:15.798Z,25.70
2018-06-28T14:32:43.973Z,25.70
2018-06-28T14:35:11.851Z,25.80
2018-06-28T14:37:39.520Z,25.80
2018-06-28T14:40:07.930Z,25.80
2018-06-28T14:42:35.605Z,25.80
2018-06-28T14:45:03.615Z,25.80
2018-06-28T14:47:31.200Z,25.80
2018-06-28T14:49:58.778Z,25.80
2018-06-28T14:52:26.564Z,25.80
2018-06-28T14:54:54.165Z,25.90
2018-06-28T14:57:21.778Z,25.90
2018-06-28T14:59:49.680Z,25.90
2018-06-28T15:02:17.285Z,25.90
2018-06-28T15:04:44.929Z,25.90
2018-06-28T15:07:12.548Z,26.00
2018-06-28T15:09:40.274Z,26.00
2018-06-28T15:12:07.899Z,26.00
2018-06-28T15:14:35.611Z,26.00
2018-06-28T15:17:03.250Z,26.00
2018-06-28T15:19:30.948Z,26.00
2018-06-28T15:21:58.576Z,26.00
2018-06-28T15:24:26.349Z,26.00
2018-06-28T15:26:54.005Z,26.00
2018-06-28T15:29:21.740Z,26.00
2018-06-28T15:31:50.284Z,26.00
2018-06-28T15:34:18.027Z,26.00
2018-06-28T15:36:45.761Z,26.00
2018-06-28T15:39:13.391Z,26.00
2018-06-28T15:41:41.013Z,26.00
2018-06-28T15:44:08.653Z,25.90
2018-06-28T15:46:36.389Z,25.90
2018-06-28T15:49:04.056Z,25.90
2018-06-28T15:51:31.769Z,25.90
2018-06-28T15:53:59.877Z,25.80
2018-06-28T15:58:55.089Z,25.80
2018-06-28T16:01:23.015Z,25.80
2018-06-28T16:03:50.605Z,25.80
2018-06-28T16:06:18.512Z,25.70
2018-06-28T16:08:46.212Z,25.70
2018-06-28T16:13:41.552Z,25.60
2018-06-28T16:16:09.180Z,25.60
2018-06-28T16:18:37.346Z,25.60
2018-06-28T16:21:05.569Z,25.60
2018-06-28T16:23:33.342Z,25.50
2018-06-28T16:26:00.948Z,25.50
2018-06-28T16:28:28.631Z,25.50
2018-06-28T16:30:56.295Z,25.50
2018-06-28T16:33:24.014Z,25.50
2018-06-28T16:35:51.669Z,25.50
2018-06-28T16:38:19.334Z,25.50
2018-06-28T16:40:47.272Z,25.50
2018-06-28T16:43:15.328Z,25.50
2018-06-28T16:45:43.009Z,25.50
2018-06-28T16:48:10.608Z,25.50
2018-06-28T16:50:38.365Z,25.50
2018-06-28T16:53:06.130Z,25.50
2018-06-28T16:55:33.696Z,25.50
2018-06-28T16:58:01.345Z,25.50
2018-06-28T17:00:28.991Z,25.50
2018-06-28T17:02:56.683Z,25.50
2018-06-28T17:05:24.365Z,25.50
2018-06-28T17:07:52.195Z,25.50
2018-06-28T17:10:20.064Z,25.50
2018-06-28T17:12:47.693Z,25.50
2018-06-28T17:15:15.332Z,25.50
2018-06-28T17:17:43.239Z,25.40
2018-06-28T17:20:11.125Z,25.40
2018-06-28T17:22:38.777Z,25.40
2018-06-28T17:25:06.565Z,25.40
2018-06-28T17:27:34.237Z,25.30
2018-06-28T17:30:01.917Z,25.30
2018-06-28T17:32:29.537Z,25.30
2018-06-28T17:34:57.232Z,25.30
2018-06-28T17:37:24.938Z,25.30
2018-06-28T17:39:52.905Z,25.30
2018-06-28T17:42:20.602Z,25.30
2018-06-28T17:44:48.309Z,25.30
2018-06-28T17:47:16.053Z,25.30
2018-06-28T17:49:43.785Z,25.30
2018-06-28T17:52:11.411Z,25.30
2018-06-28T17:54:39.163Z,25.30
2018-06-28T17:57:06.871Z,25.30
2018-06-28T17:59:35.436Z,25.30
2018-06-28T18:02:03.192Z,25.30
2018-06-28T18:04:30.876Z,25.30
2018-06-28T18:06:59.253Z,25.20
2018-06-28T18:09:26.868Z,25.30
2018-06-28T18:11:54.608Z,25.30
2018-06-28T18:14:22.482Z,25.20
2018-06-28T18:16:50.429Z,25.20
2018-06-28T18:19:18.318Z,25.20
2018-06-28T18:21:53.196Z,25.20
2018-06-28T18:24:20.834Z,25.20
2018-06-28T18:26:48.593Z,25.10
2018-06-28T18:29:16.325Z,25.10
2018-06-28T18:31:44.049Z,25.10
2018-06-28T18:34:11.709Z,25.10
2018-06-28T18:36:39.453Z,25.00
2018-06-28T18:39:09.013Z,25.00
2018-06-28T18:41:37.423Z,25.00
2018-06-28T18:44:05.291Z,25.00
2018-06-28T18:46:33.143Z,24.90
2018-06-28T18:49:00.905Z,24.90
2018-06-28T18:51:28.838Z,24.90
2018-06-28T18:53:56.693Z,24.80
2018-06-28T18:56:24.500Z,24.80
2018-06-28T18:58:52.323Z,24.80
2018-06-28T19:01:20.029Z,24.80
2018-06-28T19:03:47.786Z,24.80
2018-06-28T19:06:15.428Z,24.70
2018-06-28T19:08:43.093Z,24.80
2018-06-28T19:11:10.780Z,24.70
2018-06-28T19:13:44.122Z,24.70
2018-06-28T19:16:17.624Z,24.70
2018-06-28T19:18:45.364Z,24.70
2018-06-28T19:21:18.738Z,24.70
2018-06-28T19:23:49.563Z,24.70
2018-06-28T19:26:17.835Z,24.70
2018-06-28T19:28:46.066Z,24.70
2018-06-28T19:31:19.449Z,24.60
2018-06-28T19:33:47.189Z,24.70
2018-06-28T19:36:14.899Z,24.60
2018-06-28T19:38:48.281Z,24.60
2018-06-28T19:41:21.848Z,24.60
2018-06-28T19:43:49.593Z,24.60
2018-06-28T19:46:17.210Z,24.60
2018-06-28T19:48:44.963Z,24.60
2018-06-28T19:51:18.427Z,24.60
2018-06-28T19:53:46.210Z,24.50
2018-06-28T19:56:13.837Z,24.60
2018-06-28T19:58:41.475Z,24.50
2018-06-28T20:01:14.884Z,24.50
2018-06-28T20:03:48.268Z,24.50
2018-06-28T20:06:15.944Z,24.50
2018-06-28T20:08:43.722Z,24.40
2018-06-28T20:11:11.420Z,24.40
2018-06-28T20:13:44.828Z,24.40
2018-06-28T20:16:18.303Z,24.40
2018-06-28T20:18:51.828Z,24.40
2018-06-28T20:21:19.700Z,24.40
2018-06-28T20:23:47.309Z,24.40
2018-06-28T20:28:54.344Z,24.40
2018-06-28T20:32:25.830Z,24.40
2018-06-28T20:34:53.485Z,24.40
2018-06-28T20:37:21.136Z,24.40
2018-06-28T20:39:48.718Z,24.30
2018-06-28T20:42:16.450Z,24.30
2018-06-28T20:44:44.058Z,24.30
2018-06-28T20:47:11.685Z,24.30
2018-06-28T20:49:39.377Z,24.30
2018-06-28T20:52:07.001Z,24.30
2018-06-28T20:54:34.621Z,24.40
2018-06-28T20:57:02.282Z,24.30
2018-06-28T20:59:30.069Z,24.40
2018-06-28T21:01:57.673Z,24.40
2018-06-28T21:06:53.077Z,24.40
2018-06-28T21:09:20.814Z,24.40
2018-06-28T21:11:48.398Z,24.40
2018-06-28T21:14:16.007Z,24.40
2018-06-28T21:16:43.665Z,24.40
2018-06-28T21:19:11.268Z,24.40
2018-06-28T21:21:38.924Z,24.40
2018-06-28T21:24:06.572Z,24.40
2018-06-28T21:26:34.354Z,24.40
2018-06-28T21:29:01.931Z,24.40
2018-06-28T21:31:30.008Z,24.40
2018-06-28T21:33:57.666Z,24.40
2018-06-28T21:36:25.258Z,24.40
2018-06-28T21:38:52.847Z,24.40
2018-06-28T21:41:20.503Z,24.40
2018-06-28T21:43:48.176Z,24.40
2018-06-28T21:46:15.754Z,24.40
2018-06-28T21:48:43.395Z,24.40
2018-06-28T21:51:11.017Z,24.40
2018-06-28T21:53:38.594Z,24.40
2018-06-28T21:56:06.185Z,24.50
2018-06-28T21:58:33.853Z,24.40
2018-06-28T22:01:01.609Z,24.40
2018-06-28T22:03:29.177Z,24.40
2018-06-28T22:05:56.780Z,24.40
2018-06-28T22:08:24.348Z,24.40
2018-06-28T22:10:51.923Z,24.40
2018-06-28T22:13:19.489Z,24.40
2018-06-28T22:15:47.142Z,24.40
2018-06-28T22:18:14.732Z,24.40
2018-06-28T22:20:42.306Z,24.40
2018-06-28T22:23:09.873Z,24.40
2018-06-28T22:25:37.684Z,24.40
2018-06-28T22:28:05.308Z,24.40
2018-06-28T22:30:32.889Z,24.40
2018-06-28T22:33:00.507Z,24.40
2018-06-28T22:35:28.082Z,24.40
2018-06-28T22:37:55.887Z,24.40
2018-06-28T22:40:23.470Z,24.40
2018-06-28T22:42:51.056Z,24.40
2018-06-28T22:45:18.676Z,24.40
2018-06-28T22:47:46.269Z,24.40
2018-06-28T22:50:13.864Z,24.40
2018-06-28T22:52:41.540Z,24.40
2018-06-28T22:55:09.334Z,24.40
2018-06-28T22:57:36.916Z,24.40
2018-06-28T23:00:06.269Z,24.40
2018-06-28T23:02:33.919Z,24.40
2018-06-28T23:05:01.543Z,24.40
2018-06-28T23:07:29.130Z,24.40
2018-06-28T23:09:56.823Z,24.40
2018-06-28T23:12:24.373Z,24.40
2018-06-28T23:14:52.477Z,24.40
2018-06-28T23:17:20.150Z,24.40
2018-06-28T23:19:47.841Z,24.40
2018-06-28T23:22:52.601Z,24.40
2018-06-28T23:25:20.865Z,24.40
2018-06-28T23:27:49.079Z,24.40
2018-06-28T23:30:17.201Z,24.40
2018-06-28T23:32:44.937Z,24.40
2018-06-28T23:35:12.504Z,24.40
2018-06-28T23:37:40.182Z,24.40
2018-06-28T23:40:07.860Z,24.30
2018-06-28T23:42:36.295Z,24.30
2018-06-28T23:45:04.973Z,24.30
2018-06-28T23:47:32.761Z,24.30
2018-06-28T23:50:00.563Z,24.30
2018-06-28T23:52:28.157Z,24.30
2018-06-28T23:54:55.881Z,24.30
2018-06-28T23:57:23.413Z,24.30
2018-06-28T23:59:51.068Z,24.30
